createdAt,value
2023-04-09T00:01:46.884Z,4.10
2023-04-09T00:04:14.817Z,4.53
2023-04-09T00:06:42.708Z,3.95
2023-04-09T00:09:10.677Z,4.22
2023-04-09T00:11:39.885Z,4.43
2023-04-09T00:14:07.906Z,4.35
2023-04-09T00:16:35.970Z,4.30
2023-04-09T00:19:03.932Z,4.38
2023-04-09T00:21:32.220Z,4.18
2023-04-09T00:24:00.094Z,4.20
2023-04-09T00:26:28.098Z,4.10
2023-04-09T00:28:57.359Z,4.30
2023-04-09T00:31:25.281Z,4.22
2023-04-09T00:33:53.156Z,4.35
2023-04-09T00:36:21.038Z,4.22
2023-04-09T00:38:48.984Z,4.03
2023-04-09T00:41:19.146Z,4.22
2023-04-09T00:43:47.001Z,4.20
2023-04-09T00:46:16.477Z,4.15
2023-04-09T00:48:44.400Z,4.10
2023-04-09T00:51:12.300Z,4.25
2023-04-09T00:53:40.719Z,3.67
2023-04-09T00:56:08.896Z,3.97
2023-04-09T00:58:36.845Z,4.00
2023-04-09T01:01:05.323Z,3.92
2023-04-09T01:03:34.882Z,4.30
2023-04-09T01:06:07.141Z,4.10
2023-04-09T01:08:40.311Z,3.85
2023-04-09T01:11:11.341Z,4.05
2023-04-09T01:13:43.370Z,3.80
2023-04-09T01:16:11.375Z,4.03
2023-04-09T01:18:43.121Z,3.88
2023-04-09T01:21:12.900Z,3.60
2023-04-09T01:23:46.769Z,3.80
2023-04-09T01:26:20.095Z,3.90
2023-04-09T01:28:54.957Z,3.85
2023-04-09T01:31:26.242Z,3.67
2023-04-09T01:33:54.175Z,3.70
2023-04-09T01:36:22.167Z,3.70
2023-04-09T01:38:51.261Z,3.72
2023-04-09T01:41:21.800Z,3.70
2023-04-09T01:43:49.880Z,3.70
2023-04-09T01:46:19.238Z,3.63
2023-04-09T01:48:47.335Z,3.60
2023-04-09T01:51:15.415Z,3.70
2023-04-09T01:53:43.357Z,3.75
2023-04-09T01:56:11.364Z,3.90
2023-04-09T01:58:40.875Z,3.80
2023-04-09T02:01:13.714Z,3.88
2023-04-09T02:03:47.532Z,3.50
2023-04-09T02:06:16.873Z,3.63
2023-04-09T02:08:45.427Z,3.50
2023-04-09T02:11:13.798Z,3.78
2023-04-09T02:13:42.038Z,3.63
2023-04-09T02:16:10.108Z,3.63
2023-04-09T02:18:38.093Z,3.65
2023-04-09T02:21:07.746Z,3.72
2023-04-09T02:23:35.693Z,3.80
2023-04-09T02:26:03.592Z,3.53
2023-04-09T02:28:31.493Z,4.00
2023-04-09T02:30:59.548Z,3.63
2023-04-09T02:33:27.507Z,3.97
2023-04-09T02:35:55.450Z,3.80
2023-04-09T02:38:24.950Z,3.85
2023-04-09T02:40:52.814Z,3.67
2023-04-09T02:43:20.714Z,3.42
2023-04-09T02:45:48.582Z,3.35
2023-04-09T02:48:16.464Z,3.65
2023-04-09T02:50:46.207Z,3.40
2023-04-09T02:53:14.098Z,3.50
2023-04-09T02:55:43.465Z,3.40
2023-04-09T02:58:11.382Z,3.40
2023-04-09T03:00:39.297Z,3.45
2023-04-09T03:03:07.667Z,3.40
2023-04-09T03:05:36.181Z,3.28
2023-04-09T03:08:04.603Z,3.42
2023-04-09T03:10:32.493Z,3.50
2023-04-09T03:13:01.777Z,3.58
2023-04-09T03:15:29.624Z,3.47
2023-04-09T03:17:57.537Z,3.17
2023-04-09T03:20:25.512Z,3.10
2023-04-09T03:22:53.405Z,3.50
2023-04-09T03:25:29.550Z,3.30
2023-04-09T03:27:57.467Z,3.15
2023-04-09T03:30:38.121Z,3.40
2023-04-09T03:33:07.495Z,3.10
2023-04-09T03:35:44.478Z,3.25
2023-04-09T03:38:13.619Z,3.20
2023-04-09T03:40:42.641Z,3.20
2023-04-09T03:43:10.548Z,3.13
2023-04-09T03:45:42.009Z,3.05
2023-04-09T03:48:20.956Z,3.15
2023-04-09T03:50:48.934Z,3.30
2023-04-09T03:53:23.272Z,3.20
2023-04-09T03:55:51.403Z,3.22
2023-04-09T03:58:24.756Z,3.10
2023-04-09T04:00:54.706Z,3.10
2023-04-09T04:03:37.028Z,2.95
2023-04-09T04:06:14.852Z,3.10
2023-04-09T04:08:54.129Z,3.00
2023-04-09T04:11:27.073Z,2.72
2023-04-09T04:13:56.780Z,2.90
2023-04-09T04:16:26.811Z,2.95
2023-04-09T04:18:56.005Z,3.10
2023-04-09T04:21:23.925Z,2.95
2023-04-09T04:23:58.568Z,3.25
2023-04-09T04:26:29.348Z,3.10
2023-04-09T04:28:57.557Z,3.08
2023-04-09T04:31:46.788Z,3.03
2023-04-09T04:34:17.239Z,3.17
2023-04-09T04:36:49.172Z,3.05
2023-04-09T04:39:17.946Z,2.85
2023-04-09T04:41:52.534Z,2.67
2023-04-09T04:44:24.052Z,3.20
2023-04-09T04:46:59.395Z,2.97
2023-04-09T04:49:27.557Z,3.17
2023-04-09T04:51:56.113Z,2.75
2023-04-09T04:54:24.597Z,3.00
2023-04-09T04:56:56.532Z,3.05
2023-04-09T04:59:33.684Z,3.20
2023-04-09T05:02:06.210Z,3.10
2023-04-09T05:04:41.771Z,3.00
2023-04-09T05:07:13.091Z,2.83
2023-04-09T05:09:48.930Z,2.75
2023-04-09T05:12:18.010Z,2.67
2023-04-09T05:14:50.146Z,2.75
2023-04-09T05:17:19.614Z,2.70
2023-04-09T05:19:52.257Z,2.97
2023-04-09T05:22:23.622Z,2.75
2023-04-09T05:24:51.534Z,2.88
2023-04-09T05:27:19.498Z,2.97
2023-04-09T05:29:49.663Z,2.85
2023-04-09T05:32:19.676Z,2.80
2023-04-09T05:34:47.614Z,3.03
2023-04-09T05:37:16.453Z,2.72
2023-04-09T05:39:49.542Z,2.67
2023-04-09T05:42:17.561Z,2.78
2023-04-09T05:44:52.945Z,2.75
2023-04-09T05:47:23.785Z,2.72
2023-04-09T05:50:12.544Z,2.50
2023-04-09T05:52:41.365Z,2.67
2023-04-09T05:55:10.856Z,2.72
2023-04-09T05:58:00.949Z,2.60
2023-04-09T06:00:29.100Z,2.80
2023-04-09T06:02:58.487Z,3.03
2023-04-09T06:05:29.523Z,2.92
2023-04-09T06:07:57.543Z,2.80
2023-04-09T06:10:25.542Z,2.60
2023-04-09T06:12:53.742Z,2.80
2023-04-09T06:15:21.827Z,2.72
2023-04-09T06:17:49.793Z,2.60
2023-04-09T06:20:19.256Z,2.63
2023-04-09T06:22:47.218Z,2.50
2023-04-09T06:25:15.172Z,2.83
2023-04-09T06:27:43.113Z,2.65
2023-04-09T06:30:12.832Z,3.10
2023-04-09T06:32:53.071Z,2.80
2023-04-09T06:35:23.390Z,2.80
2023-04-09T06:37:51.359Z,2.70
2023-04-09T06:40:21.375Z,2.83
2023-04-09T06:42:50.940Z,2.67
2023-04-09T06:45:24.564Z,2.60
2023-04-09T06:47:52.581Z,2.80
2023-04-09T06:50:20.847Z,2.78
2023-04-09T06:52:50.291Z,2.63
2023-04-09T06:55:18.271Z,2.80
2023-04-09T06:57:46.196Z,2.78
2023-04-09T07:00:14.755Z,2.92
2023-04-09T07:02:42.943Z,2.75
2023-04-09T07:05:11.416Z,2.92
2023-04-09T07:07:39.335Z,2.92
2023-04-09T07:10:09.874Z,2.78
2023-04-09T07:12:37.737Z,2.85
2023-04-09T07:15:06.837Z,2.60
2023-04-09T07:17:34.819Z,3.00
2023-04-09T07:20:03.005Z,2.85
2023-04-09T07:22:31.168Z,2.67
2023-04-09T07:24:59.131Z,2.80
2023-04-09T07:27:28.709Z,2.80
2023-04-09T07:29:57.128Z,2.80
2023-04-09T07:32:25.126Z,2.80
2023-04-09T07:34:53.332Z,2.72
2023-04-09T07:37:21.536Z,2.53
2023-04-09T07:39:51.198Z,2.67
2023-04-09T07:42:19.205Z,2.63
2023-04-09T07:44:48.601Z,2.70
2023-04-09T07:47:16.700Z,2.90
2023-04-09T07:49:44.623Z,2.92
2023-04-09T07:52:12.583Z,2.67
2023-04-09T07:54:40.483Z,3.15
2023-04-09T07:57:08.444Z,3.22
2023-04-09T07:59:36.542Z,3.00
2023-04-09T08:02:07.197Z,2.90
2023-04-09T08:04:35.258Z,2.83
2023-04-09T08:07:03.397Z,2.70
2023-04-09T08:09:31.258Z,2.88
2023-04-09T08:11:59.216Z,3.00
2023-04-09T08:14:27.255Z,3.20
2023-04-09T08:16:55.495Z,3.00
2023-04-09T08:19:25.055Z,3.03
2023-04-09T08:21:52.948Z,2.75
2023-04-09T08:24:21.447Z,2.90
2023-04-09T08:26:49.514Z,2.90
2023-04-09T08:29:17.451Z,2.90
2023-04-09T08:31:45.558Z,3.00
2023-04-09T08:34:16.057Z,2.95
2023-04-09T08:36:49.699Z,3.00
2023-04-09T08:39:18.866Z,3.03
2023-04-09T08:41:47.521Z,2.78
2023-04-09T08:44:15.552Z,2.97
2023-04-09T08:46:43.470Z,3.20
2023-04-09T08:49:11.548Z,2.90
2023-04-09T08:51:40.314Z,2.90
2023-04-09T08:54:09.553Z,2.83
2023-04-09T08:56:37.422Z,2.90
2023-04-09T08:59:05.498Z,2.80
2023-04-09T09:01:33.724Z,2.80
2023-04-09T09:04:03.869Z,2.95
2023-04-09T09:06:34.053Z,3.00
2023-04-09T09:09:04.582Z,3.05
2023-04-09T09:11:34.032Z,2.90
2023-04-09T09:14:02.591Z,3.00
2023-04-09T09:16:31.370Z,3.00
2023-04-09T09:19:00.289Z,3.00
2023-04-09T09:21:28.609Z,2.85
2023-04-09T09:23:56.582Z,3.05
2023-04-09T09:26:25.652Z,2.90
2023-04-09T09:28:55.344Z,3.05
2023-04-09T09:31:24.016Z,3.00
2023-04-09T09:33:52.190Z,3.00
2023-04-09T09:36:33.221Z,2.78
2023-04-09T09:39:03.818Z,3.28
2023-04-09T09:41:31.841Z,2.92
2023-04-09T09:44:01.399Z,3.00
2023-04-09T09:46:29.368Z,2.80
2023-04-09T09:48:57.345Z,2.97
2023-04-09T09:51:28.302Z,3.00
2023-04-09T09:53:57.104Z,2.90
2023-04-09T09:56:32.275Z,2.90
2023-04-09T09:59:08.449Z,3.10
2023-04-09T10:01:37.132Z,2.80
2023-04-09T10:04:06.801Z,3.20
2023-04-09T10:06:35.682Z,2.78
2023-04-09T10:09:06.348Z,3.05
2023-04-09T10:11:34.744Z,2.90
2023-04-09T10:14:05.154Z,3.05
2023-04-09T10:16:33.318Z,2.80
2023-04-09T10:19:01.381Z,3.00
2023-04-09T10:21:34.022Z,2.70
2023-04-09T10:24:05.693Z,3.05
2023-04-09T10:26:35.507Z,3.10
2023-04-09T10:29:08.276Z,2.72
2023-04-09T10:31:55.007Z,2.80
2023-04-09T10:34:23.469Z,2.90
2023-04-09T10:36:54.835Z,3.00
2023-04-09T10:39:22.948Z,2.70
2023-04-09T10:41:50.900Z,2.88
2023-04-09T10:44:23.471Z,3.05
2023-04-09T10:46:52.069Z,2.85
2023-04-09T10:49:20.883Z,2.90
2023-04-09T10:51:55.387Z,2.97
2023-04-09T10:54:46.024Z,2.97
2023-04-09T10:57:18.992Z,2.70
2023-04-09T10:59:49.167Z,2.95
2023-04-09T11:02:47.064Z,2.92
2023-04-09T11:05:20.784Z,2.85
2023-04-09T11:07:52.907Z,2.63
2023-04-09T11:10:20.857Z,2.75
2023-04-09T11:12:49.090Z,2.75
2023-04-09T11:15:18.818Z,2.80
2023-04-09T11:17:47.229Z,2.78
2023-04-09T11:20:15.263Z,2.70
2023-04-09T11:22:43.135Z,3.00
2023-04-09T11:25:11.193Z,3.00
2023-04-09T11:27:39.905Z,2.80
2023-04-09T11:30:09.069Z,2.95
2023-04-09T11:32:38.352Z,2.70
2023-04-09T11:35:08.147Z,2.90
2023-04-09T11:37:37.651Z,2.90
2023-04-09T11:40:06.247Z,2.80
2023-04-09T11:42:34.196Z,2.72
2023-04-09T11:45:02.454Z,2.97
2023-04-09T11:47:30.992Z,2.72
2023-04-09T11:50:00.354Z,3.08
2023-04-09T11:52:30.612Z,2.90
2023-04-09T11:55:01.319Z,2.80
2023-04-09T11:57:38.268Z,2.83
2023-04-09T12:00:10.473Z,2.80
2023-04-09T12:02:43.028Z,2.75
2023-04-09T12:05:14.045Z,2.90
2023-04-09T12:07:44.138Z,2.80
2023-04-09T12:10:16.739Z,2.70
2023-04-09T12:12:45.377Z,3.00
2023-04-09T12:15:19.508Z,3.20
2023-04-09T12:17:51.678Z,2.83
2023-04-09T12:20:35.266Z,2.90
2023-04-09T12:23:03.968Z,3.03
2023-04-09T12:25:32.168Z,2.80
2023-04-09T12:28:00.416Z,2.90
2023-04-09T12:30:28.526Z,2.67
2023-04-09T12:32:56.631Z,2.97
2023-04-09T12:35:24.539Z,2.88
2023-04-09T12:37:53.857Z,2.90
2023-04-09T12:40:22.058Z,3.05
2023-04-09T12:42:50.005Z,2.97
2023-04-09T12:45:19.113Z,2.35
2023-04-09T12:47:47.447Z,2.80
2023-04-09T12:50:16.101Z,2.90
2023-04-09T12:52:44.216Z,2.78
2023-04-09T12:55:13.612Z,2.50
2023-04-09T12:57:44.365Z,2.65
2023-04-09T13:00:13.282Z,2.70
2023-04-09T13:02:41.589Z,2.80
2023-04-09T13:05:09.968Z,2.75
2023-04-09T13:07:37.869Z,2.88
2023-04-09T13:10:07.201Z,3.10
2023-04-09T13:12:36.500Z,2.60
2023-04-09T13:15:04.659Z,2.83
2023-04-09T13:17:32.609Z,2.95
2023-04-09T13:20:01.311Z,2.72
2023-04-09T13:22:29.192Z,2.60
2023-04-09T13:24:57.373Z,2.53
2023-04-09T13:27:25.427Z,2.70
2023-04-09T13:29:54.682Z,2.70
2023-04-09T13:32:24.115Z,2.92
2023-04-09T13:34:53.689Z,2.72
2023-04-09T13:37:21.675Z,2.60
2023-04-09T13:39:50.418Z,2.58
2023-04-09T13:42:18.422Z,2.70
2023-04-09T13:44:46.613Z,2.60
2023-04-09T13:47:16.457Z,2.63
2023-04-09T13:49:44.459Z,2.80
2023-04-09T13:52:12.382Z,2.65
2023-04-09T13:54:40.559Z,2.80
2023-04-09T13:57:08.454Z,2.75
2023-04-09T13:59:36.584Z,2.70
2023-04-09T14:02:04.553Z,2.80
2023-04-09T14:04:33.958Z,2.70
2023-04-09T14:07:01.911Z,2.70
2023-04-09T14:09:30.243Z,2.67
2023-04-09T14:11:58.184Z,2.60
2023-04-09T14:14:26.099Z,2.60
2023-04-09T14:16:54.095Z,2.50
2023-04-09T14:19:22.056Z,2.50
2023-04-09T14:21:53.213Z,2.75
2023-04-09T14:24:23.019Z,2.63
2023-04-09T14:26:53.222Z,2.22
2023-04-09T14:29:22.060Z,2.55
2023-04-09T14:31:50.238Z,2.63
2023-04-09T14:34:18.250Z,2.70
2023-04-09T14:36:46.122Z,2.83
2023-04-09T14:39:15.652Z,2.63
2023-04-09T14:41:43.592Z,2.45
2023-04-09T14:44:11.503Z,2.40
2023-04-09T14:46:39.414Z,2.63
2023-04-09T14:49:07.482Z,2.40
2023-04-09T14:51:35.460Z,2.50
2023-04-09T14:54:03.418Z,2.40
2023-04-09T14:56:32.828Z,2.53
2023-04-09T14:59:00.760Z,2.50
2023-04-09T15:01:29.195Z,2.63
2023-04-09T15:03:57.895Z,2.55
2023-04-09T15:06:26.368Z,2.45
2023-04-09T15:08:54.528Z,2.38
2023-04-09T15:11:23.097Z,2.60
2023-04-09T15:13:52.598Z,2.70
2023-04-09T15:16:24.311Z,2.50
2023-04-09T15:18:52.837Z,2.40
2023-04-09T15:21:21.498Z,2.05
2023-04-09T15:23:51.067Z,2.40
2023-04-09T15:26:18.962Z,2.35
2023-04-09T15:28:46.943Z,2.40
2023-04-09T15:31:16.686Z,2.50
2023-04-09T15:33:44.806Z,2.30
2023-04-09T15:36:12.759Z,2.50
2023-04-09T15:38:40.845Z,2.50
2023-04-09T15:41:08.774Z,2.42
2023-04-09T15:43:36.866Z,2.40
2023-04-09T15:46:09.901Z,2.42
2023-04-09T15:48:39.227Z,2.47
2023-04-09T15:51:07.925Z,2.72
2023-04-09T15:53:35.900Z,2.30
2023-04-09T15:56:04.084Z,2.00
2023-04-09T15:58:32.064Z,2.30
2023-04-09T16:01:20.129Z,2.38
2023-04-09T16:03:52.272Z,2.47
2023-04-09T16:06:21.146Z,2.35
2023-04-09T16:08:49.085Z,2.40
2023-04-09T16:11:17.241Z,2.40
2023-04-09T16:13:45.170Z,2.05
2023-04-09T16:16:13.261Z,2.28
2023-04-09T16:18:41.225Z,2.20
2023-04-09T16:21:10.589Z,2.25
2023-04-09T16:23:38.539Z,2.60
2023-04-09T16:26:07.080Z,2.20
2023-04-09T16:28:35.057Z,2.55
2023-04-09T16:31:03.200Z,2.15
2023-04-09T16:33:31.268Z,2.33
2023-04-09T16:35:59.535Z,2.50
2023-04-09T16:38:29.238Z,2.60
2023-04-09T16:40:57.364Z,2.45
2023-04-09T16:43:25.382Z,2.50
2023-04-09T16:45:53.563Z,2.35
2023-04-09T16:48:21.546Z,2.35
2023-04-09T16:50:49.449Z,2.20
2023-04-09T16:53:17.392Z,2.20
2023-04-09T16:55:46.787Z,2.17
2023-04-09T16:58:14.767Z,2.33
2023-04-09T17:00:44.138Z,2.30
2023-04-09T17:03:13.454Z,2.33
2023-04-09T17:05:41.544Z,2.40
2023-04-09T17:08:09.449Z,2.33
2023-04-09T17:10:37.897Z,2.15
2023-04-09T17:13:07.174Z,2.50
2023-04-09T17:15:35.060Z,2.50
2023-04-09T17:18:03.755Z,2.28
2023-04-09T17:20:32.173Z,2.50
2023-04-09T17:23:00.049Z,2.30
2023-04-09T17:25:28.078Z,1.92
2023-04-09T17:27:56.014Z,2.20
2023-04-09T17:30:25.765Z,2.13
2023-04-09T17:32:53.735Z,2.28
2023-04-09T17:35:21.835Z,2.03
2023-04-09T17:37:49.776Z,2.20
2023-04-09T17:40:18.696Z,2.40
2023-04-09T17:42:46.593Z,2.10
2023-04-09T17:45:14.528Z,2.33
2023-04-09T17:47:43.815Z,2.33
2023-04-09T17:50:12.367Z,2.15
2023-04-09T17:52:40.678Z,2.35
2023-04-09T17:55:09.136Z,2.50
2023-04-09T17:57:37.065Z,2.50
2023-04-09T18:00:05.464Z,2.15
2023-04-09T18:02:33.564Z,2.50
2023-04-09T18:05:04.528Z,2.35
2023-04-09T18:07:34.166Z,2.30
2023-04-09T18:10:02.453Z,2.30
2023-04-09T18:12:30.546Z,2.33
2023-04-09T18:14:58.507Z,2.30
2023-04-09T18:17:27.166Z,2.20
2023-04-09T18:19:58.250Z,2.15
2023-04-09T18:22:27.855Z,2.40
2023-04-09T18:24:55.908Z,2.30
2023-04-09T18:27:23.792Z,2.50
2023-04-09T18:29:51.741Z,2.20
2023-04-09T18:32:20.107Z,2.42
2023-04-09T18:34:48.136Z,2.40
2023-04-09T18:37:16.066Z,2.50
2023-04-09T18:39:45.972Z,2.40
2023-04-09T18:42:13.998Z,2.40
2023-04-09T18:44:42.223Z,2.33
2023-04-09T18:47:11.940Z,2.30
2023-04-09T18:49:39.884Z,2.47
2023-04-09T18:52:09.160Z,2.15
2023-04-09T18:54:38.510Z,2.40
2023-04-09T18:57:08.671Z,2.30
2023-04-09T18:59:36.609Z,2.50
2023-04-09T19:02:05.113Z,2.28
2023-04-09T19:04:36.338Z,2.40
2023-04-09T19:07:04.552Z,2.30
2023-04-09T19:09:33.005Z,2.63
2023-04-09T19:12:01.571Z,2.33
2023-04-09T19:14:30.977Z,2.47
2023-04-09T19:16:59.761Z,2.33
2023-04-09T19:19:29.035Z,2.38
2023-04-09T19:21:57.317Z,2.70
2023-04-09T19:24:26.005Z,2.60
2023-04-09T19:26:53.861Z,2.40
2023-04-09T19:29:22.512Z,2.50
2023-04-09T19:31:51.865Z,2.38
2023-04-09T19:34:19.865Z,2.60
2023-04-09T19:36:47.777Z,2.80
2023-04-09T19:39:15.788Z,2.50
2023-04-09T19:41:43.710Z,2.53
2023-04-09T19:44:11.603Z,2.50
2023-04-09T19:46:39.599Z,2.60
2023-04-09T19:49:08.927Z,2.65
2023-04-09T19:51:36.862Z,2.47
2023-04-09T19:54:04.917Z,2.90
2023-04-09T19:56:33.017Z,2.63
2023-04-09T19:59:00.901Z,2.55
2023-04-09T20:01:28.955Z,2.55
2023-04-09T20:03:57.499Z,2.70
2023-04-09T20:06:27.093Z,2.90
2023-04-09T20:08:55.904Z,2.92
2023-04-09T20:11:23.795Z,2.78
2023-04-09T20:13:51.939Z,2.60
2023-04-09T20:16:20.090Z,2.63
2023-04-09T20:18:48.122Z,2.70
2023-04-09T20:21:16.042Z,2.50
2023-04-09T20:23:46.120Z,2.95
2023-04-09T20:26:14.061Z,2.67
2023-04-09T20:28:41.987Z,2.60
2023-04-09T20:31:09.889Z,3.08
2023-04-09T20:33:37.808Z,2.53
2023-04-09T20:36:06.100Z,2.90
2023-04-09T20:38:34.039Z,2.67
2023-04-09T20:41:03.349Z,2.67
2023-04-09T20:43:31.498Z,2.78
2023-04-09T20:45:59.753Z,2.90
2023-04-09T20:48:31.294Z,2.85
2023-04-09T20:50:59.266Z,2.83
2023-04-09T20:53:27.209Z,2.63
2023-04-09T20:55:55.248Z,2.95
2023-04-09T20:58:25.359Z,2.88
2023-04-09T21:00:54.428Z,3.00
2023-04-09T21:03:22.561Z,3.00
2023-04-09T21:05:50.799Z,3.13
2023-04-09T21:08:18.776Z,2.97
2023-04-09T21:10:46.666Z,2.95
2023-04-09T21:13:14.566Z,2.80
2023-04-09T21:15:43.818Z,2.90
2023-04-09T21:18:11.823Z,3.25
2023-04-09T21:20:43.722Z,3.00
2023-04-09T21:23:11.608Z,3.13
2023-04-09T21:25:39.494Z,3.05
2023-04-09T21:28:07.347Z,3.03
2023-04-09T21:30:35.399Z,3.15
2023-04-09T21:33:05.862Z,3.30
2023-04-09T21:35:33.848Z,3.30
2023-04-09T21:38:02.918Z,3.30
2023-04-09T21:40:30.998Z,3.15
2023-04-09T21:42:58.919Z,3.17
2023-04-09T21:45:26.811Z,3.53
2023-04-09T21:47:54.742Z,3.30
2023-04-09T21:50:24.006Z,3.30
2023-04-09T21:52:52.074Z,3.58
2023-04-09T21:55:20.451Z,3.63
2023-04-09T21:57:48.340Z,3.53
2023-04-09T22:00:17.637Z,3.63
2023-04-09T22:02:46.028Z,3.65
2023-04-09T22:05:14.284Z,3.72
2023-04-09T22:07:44.606Z,3.35
2023-04-09T22:10:12.743Z,3.47
2023-04-09T22:12:40.700Z,3.80
2023-04-09T22:15:09.556Z,3.72
2023-04-09T22:17:37.463Z,3.90
2023-04-09T22:20:06.091Z,4.00
2023-04-09T22:22:33.993Z,3.83
2023-04-09T22:25:04.109Z,3.80
2023-04-09T22:27:32.196Z,3.50
2023-04-09T22:30:00.288Z,3.72
2023-04-09T22:32:28.827Z,3.78
2023-04-09T22:34:56.770Z,3.65
2023-04-09T22:37:24.623Z,3.80
2023-04-09T22:39:52.545Z,3.83
2023-04-09T22:42:21.808Z,4.55
2023-04-09T22:44:49.676Z,4.07
2023-04-09T22:47:17.582Z,4.30
2023-04-09T22:49:45.470Z,4.10
2023-04-09T22:52:13.341Z,3.92
2023-04-09T22:54:43.177Z,4.00
2023-04-09T22:57:11.090Z,3.95
2023-04-09T22:59:41.037Z,4.00
2023-04-09T23:02:09.382Z,3.97
2023-04-09T23:04:37.476Z,3.90
2023-04-09T23:07:05.823Z,4.22
2023-04-09T23:09:33.708Z,4.30
2023-04-09T23:12:02.290Z,4.35
2023-04-09T23:14:30.251Z,4.05
2023-04-09T23:16:59.557Z,4.22
2023-04-09T23:19:27.472Z,4.10
2023-04-09T23:21:55.443Z,4.22
2023-04-09T23:24:23.344Z,4.50
2023-04-09T23:26:51.255Z,4.43
2023-04-09T23:29:19.207Z,4.30
2023-04-09T23:31:47.130Z,4.25
2023-04-09T23:34:16.447Z,4.30
2023-04-09T23:36:44.360Z,4.15
2023-04-09T23:39:12.299Z,4.40
2023-04-09T23:41:40.241Z,4.85
2023-04-09T23:44:08.186Z,4.45
2023-04-09T23:46:36.520Z,4.20
2023-04-09T23:49:04.574Z,4.40
2023-04-09T23:51:33.783Z,4.65
2023-04-09T23:54:01.915Z,4.50
2023-04-09T23:56:29.926Z,4.45
2023-04-09T23:58:57.861Z,4.78
